createdAt,value
2023-03-02T00:01:10.757Z,98.20
2023-03-02T00:03:40.759Z,98.20
2023-03-02T00:06:09.088Z,98.20
2023-03-02T00:08:37.221Z,98.20
2023-03-02T00:11:04.273Z,98.00
2023-03-02T00:13:34.433Z,98.10
2023-03-02T00:16:01.356Z,98.00
2023-03-02T00:18:28.356Z,97.90
2023-03-02T00:20:55.290Z,97.90
2023-03-02T00:23:22.243Z,98.10
2023-03-02T00:25:49.055Z,98.20
2023-03-02T00:28:16.271Z,98.20
2023-03-02T00:30:43.196Z,98.30
2023-03-02T00:33:10.030Z,98.20
2023-03-02T00:35:38.447Z,98.20
2023-03-02T00:38:05.688Z,98.90
2023-03-02T00:40:32.557Z,98.50
2023-03-02T00:42:59.344Z,98.40
2023-03-02T00:45:26.545Z,98.50
2023-03-02T00:47:53.355Z,98.50
2023-03-02T00:50:20.169Z,98.50
2023-03-02T00:52:47.074Z,98.60
2023-03-02T00:55:13.879Z,98.60
2023-03-02T00:57:40.749Z,98.50
2023-03-02T01:00:08.450Z,98.40
2023-03-02T01:02:35.356Z,98.50
2023-03-02T01:05:02.247Z,98.40
2023-03-02T01:07:29.159Z,98.70
2023-03-02T01:09:56.041Z,98.90
2023-03-02T01:12:23.204Z,98.80
2023-03-02T01:14:50.962Z,98.80
2023-03-02T01:17:17.974Z,98.90
2023-03-02T01:19:44.824Z,98.60
2023-03-02T01:22:11.982Z,98.70
2023-03-02T01:24:38.910Z,98.60
2023-03-02T01:27:05.925Z,98.60
2023-03-02T01:29:32.767Z,98.70
2023-03-02T01:31:59.970Z,98.50
2023-03-02T01:34:27.011Z,98.60
2023-03-02T01:36:53.847Z,98.40
2023-03-02T01:39:22.599Z,98.40
2023-03-02T01:41:52.211Z,98.50
2023-03-02T01:45:03.977Z,98.50
2023-03-02T01:47:39.150Z,98.50
2023-03-02T01:50:14.879Z,98.70
2023-03-02T01:52:42.066Z,98.70
2023-03-02T01:55:12.117Z,98.80
2023-03-02T01:57:45.037Z,99.00
2023-03-02T02:00:16.090Z,98.90
2023-03-02T02:02:43.330Z,98.60
2023-03-02T02:05:14.721Z,98.50
2023-03-02T02:07:42.295Z,98.80
2023-03-02T02:10:10.143Z,98.80
2023-03-02T02:12:37.122Z,98.70
2023-03-02T02:15:05.168Z,99.30
2023-03-02T02:17:32.773Z,99.90
2023-03-02T02:20:16.724Z,99.90
2023-03-02T02:23:03.790Z,99.90
2023-03-02T02:26:01.972Z,99.90
2023-03-02T02:28:34.838Z,99.90
2023-03-02T02:31:14.680Z,99.90
2023-03-02T02:33:46.071Z,99.90
2023-03-02T02:36:25.468Z,99.90
2023-03-02T02:38:56.254Z,99.90
2023-03-02T02:41:28.478Z,99.90
2023-03-02T02:43:56.248Z,99.90
2023-03-02T02:46:24.651Z,99.90
2023-03-02T02:48:51.934Z,99.90
2023-03-02T02:51:23.809Z,99.90
2023-03-02T02:53:59.094Z,99.90
2023-03-02T02:56:35.620Z,99.90
2023-03-02T02:59:29.610Z,99.90
2023-03-02T03:01:56.987Z,99.90
2023-03-02T03:04:28.421Z,99.90
2023-03-02T03:07:01.970Z,99.90
2023-03-02T03:09:29.536Z,99.90
2023-03-02T03:12:15.428Z,99.90
2023-03-02T03:14:42.802Z,99.90
2023-03-02T03:17:13.342Z,99.90
2023-03-02T03:19:42.617Z,99.90
2023-03-02T03:22:13.569Z,99.90
2023-03-02T03:24:42.796Z,99.90
2023-03-02T03:27:12.523Z,99.90
2023-03-02T03:29:41.427Z,99.90
2023-03-02T03:32:08.758Z,99.90
2023-03-02T03:34:40.814Z,99.90
2023-03-02T03:37:13.604Z,99.90
2023-03-02T03:39:41.316Z,99.90
2023-03-02T03:42:08.493Z,99.90
2023-03-02T03:44:35.852Z,99.90
2023-03-02T03:47:02.831Z,99.90
2023-03-02T03:49:30.104Z,99.90
2023-03-02T03:51:57.101Z,99.90
2023-03-02T03:54:24.302Z,99.90
2023-03-02T03:56:51.311Z,99.90
2023-03-02T03:59:21.131Z,99.90
2023-03-02T04:01:51.493Z,99.90
2023-03-02T04:04:22.624Z,99.90
2023-03-02T04:06:50.087Z,99.90
2023-03-02T04:09:20.248Z,99.90
2023-03-02T04:11:49.522Z,99.90
2023-03-02T04:14:17.513Z,99.90
2023-03-02T04:16:45.167Z,99.90
2023-03-02T04:19:13.675Z,99.90
2023-03-02T04:21:44.975Z,99.90
2023-03-02T04:24:13.488Z,99.90
2023-03-02T04:26:41.917Z,99.90
2023-03-02T04:29:09.958Z,99.90
2023-03-02T04:31:37.315Z,99.90
2023-03-02T04:34:04.715Z,99.90
2023-03-02T04:36:34.804Z,99.90
2023-03-02T04:39:01.925Z,99.90
2023-03-02T04:41:28.874Z,99.90
2023-03-02T04:43:56.783Z,99.90
2023-03-02T04:46:26.443Z,99.90
2023-03-02T04:48:53.740Z,99.90
2023-03-02T04:51:24.765Z,99.90
2023-03-02T04:53:53.810Z,99.90
2023-03-02T04:56:21.142Z,99.90
2023-03-02T04:58:48.133Z,99.90
2023-03-02T05:01:16.733Z,99.90
2023-03-02T05:03:43.840Z,99.90
2023-03-02T05:06:11.280Z,99.90
2023-03-02T05:08:38.554Z,99.90
2023-03-02T05:11:07.912Z,99.90
2023-03-02T05:13:36.129Z,99.90
2023-03-02T05:16:03.830Z,99.90
2023-03-02T05:18:31.819Z,99.90
2023-03-02T05:20:58.783Z,99.90
2023-03-02T05:23:27.109Z,99.90
2023-03-02T05:25:56.132Z,99.90
2023-03-02T05:28:25.854Z,99.90
2023-03-02T05:30:53.372Z,99.90
2023-03-02T05:33:21.140Z,99.90
2023-03-02T05:35:48.503Z,99.90
2023-03-02T05:38:15.538Z,99.90
2023-03-02T05:40:42.649Z,99.90
2023-03-02T05:43:13.780Z,99.90
2023-03-02T05:45:40.699Z,99.90
2023-03-02T05:48:09.097Z,99.90
2023-03-02T05:50:35.974Z,99.90
2023-03-02T05:53:02.846Z,99.90
2023-03-02T05:55:37.293Z,99.90
2023-03-02T05:58:09.271Z,99.90
2023-03-02T06:00:36.343Z,99.90
2023-03-02T06:03:03.378Z,99.90
2023-03-02T06:05:30.456Z,99.90
2023-03-02T06:07:57.378Z,99.90
2023-03-02T06:10:24.710Z,99.90
2023-03-02T06:12:51.655Z,99.90
2023-03-02T06:15:19.652Z,99.90
2023-03-02T06:17:46.646Z,99.90
2023-03-02T06:20:16.934Z,99.90
2023-03-02T06:22:45.853Z,99.90
2023-03-02T06:25:15.952Z,99.90
2023-03-02T06:27:43.555Z,99.90
2023-03-02T06:30:14.239Z,99.90
2023-03-02T06:32:41.916Z,99.90
2023-03-02T06:35:09.803Z,99.90
2023-03-02T06:37:37.115Z,99.90
2023-03-02T06:40:10.249Z,99.90
2023-03-02T06:42:38.389Z,99.90
2023-03-02T06:45:07.221Z,99.90
2023-03-02T06:47:34.097Z,99.90
2023-03-02T06:50:01.002Z,99.90
2023-03-02T06:52:27.925Z,99.90
2023-03-02T06:54:56.385Z,99.90
2023-03-02T06:57:23.478Z,99.90
2023-03-02T06:59:50.404Z,99.90
2023-03-02T07:02:17.253Z,99.90
2023-03-02T07:04:44.007Z,99.90
2023-03-02T07:07:10.765Z,99.90
2023-03-02T07:09:37.617Z,99.90
2023-03-02T07:12:04.524Z,99.90
2023-03-02T07:14:31.388Z,99.90
2023-03-02T07:17:00.206Z,99.90
2023-03-02T07:19:27.147Z,99.90
2023-03-02T07:21:53.883Z,99.90
2023-03-02T07:24:20.817Z,99.90
2023-03-02T07:26:47.713Z,99.90
2023-03-02T07:29:14.513Z,99.90
2023-03-02T07:31:44.295Z,99.90
2023-03-02T07:34:11.211Z,99.90
2023-03-02T07:36:38.027Z,99.90
2023-03-02T07:39:04.934Z,99.90
2023-03-02T07:41:32.187Z,99.90
2023-03-02T07:43:59.123Z,99.90
2023-03-02T07:46:26.087Z,99.90
2023-03-02T07:48:54.043Z,99.90
2023-03-02T07:51:20.877Z,99.90
2023-03-02T07:53:47.687Z,99.90
2023-03-02T07:56:14.537Z,99.90
2023-03-02T07:58:41.379Z,99.90
2023-03-02T08:01:08.830Z,99.90
2023-03-02T08:03:36.240Z,99.90
2023-03-02T08:06:08.276Z,99.90
2023-03-02T08:08:35.938Z,99.90
2023-03-02T08:11:11.136Z,99.90
2023-03-02T08:13:38.144Z,99.90
2023-03-02T08:16:07.517Z,99.90
2023-03-02T08:18:35.571Z,99.90
2023-03-02T08:21:02.342Z,99.90
2023-03-02T08:23:29.176Z,99.90
2023-03-02T08:25:56.122Z,99.90
2023-03-02T08:28:23.468Z,99.90
2023-03-02T08:30:58.044Z,99.90
2023-03-02T08:33:25.132Z,99.90
2023-03-02T08:36:01.217Z,99.90
2023-03-02T08:38:28.657Z,99.90
2023-03-02T08:40:55.898Z,99.90
2023-03-02T08:43:24.860Z,99.90
2023-03-02T08:45:58.008Z,99.90
2023-03-02T08:48:26.693Z,99.90
2023-03-02T08:51:02.727Z,99.90
2023-03-02T08:53:33.735Z,99.90
2023-03-02T08:56:01.682Z,99.90
2023-03-02T08:58:29.072Z,99.90
2023-03-02T09:00:56.014Z,99.90
2023-03-02T09:03:22.989Z,99.90
2023-03-02T09:05:49.946Z,99.90
2023-03-02T09:08:17.145Z,99.90
2023-03-02T09:10:43.971Z,99.90
2023-03-02T09:13:10.730Z,99.90
2023-03-02T09:15:37.577Z,99.90
2023-03-02T09:18:04.700Z,99.90
2023-03-02T09:20:32.266Z,99.90
2023-03-02T09:22:59.215Z,99.90
2023-03-02T09:25:26.129Z,99.90
2023-03-02T09:27:52.901Z,99.90
2023-03-02T09:30:19.932Z,99.90
2023-03-02T09:32:49.048Z,99.90
2023-03-02T09:35:16.099Z,99.90
2023-03-02T09:37:44.465Z,99.90
2023-03-02T09:40:23.516Z,99.90
2023-03-02T09:43:19.933Z,99.90
2023-03-02T09:46:07.574Z,99.90
2023-03-02T09:49:31.026Z,99.90
2023-03-02T09:52:11.730Z,99.90
2023-03-02T09:54:40.124Z,99.90
2023-03-02T09:57:24.387Z,99.90
2023-03-02T10:00:03.786Z,99.90
2023-03-02T10:02:41.370Z,99.90
2023-03-02T10:05:20.860Z,99.90
2023-03-02T10:07:48.429Z,99.90
2023-03-02T10:10:33.333Z,99.90
2023-03-02T10:13:10.789Z,99.90
2023-03-02T10:15:51.080Z,99.90
2023-03-02T10:18:23.740Z,99.90
2023-03-02T10:21:00.019Z,99.90
2023-03-02T10:23:37.812Z,99.90
2023-03-02T10:26:24.926Z,99.90
2023-03-02T10:29:04.047Z,99.90
2023-03-02T10:31:33.158Z,99.90
2023-03-02T10:34:01.302Z,99.90
2023-03-02T10:36:37.516Z,99.90
2023-03-02T10:39:12.394Z,99.90
2023-03-02T10:41:47.212Z,99.90
2023-03-02T10:44:23.880Z,99.90
2023-03-02T10:46:53.765Z,99.90
2023-03-02T10:49:25.215Z,99.90
2023-03-02T10:52:14.636Z,99.90
2023-03-02T10:54:41.781Z,99.90
2023-03-02T10:57:38.850Z,99.90
2023-03-02T11:00:23.549Z,99.90
2023-03-02T11:03:03.457Z,99.90
2023-03-02T11:05:39.302Z,99.90
2023-03-02T11:08:10.304Z,99.90
2023-03-02T11:10:50.785Z,99.80
2023-03-02T11:13:19.204Z,99.80
2023-03-02T11:15:51.405Z,99.70
2023-03-02T11:18:31.384Z,98.80
2023-03-02T11:21:05.769Z,98.50
2023-03-02T11:23:52.126Z,98.10
2023-03-02T11:26:52.764Z,98.80
2023-03-02T11:29:47.275Z,98.60
2023-03-02T11:32:22.327Z,98.50
2023-03-02T11:34:51.909Z,98.40
2023-03-02T11:37:24.035Z,98.10
2023-03-02T11:40:05.977Z,97.80
2023-03-02T11:42:36.074Z,98.00
2023-03-02T11:45:09.670Z,98.00
2023-03-02T11:47:37.780Z,98.00
2023-03-02T11:50:06.853Z,97.90
2023-03-02T11:52:39.204Z,97.70
2023-03-02T11:55:19.757Z,97.70
2023-03-02T11:57:53.047Z,97.20
2023-03-02T12:00:38.592Z,97.20
2023-03-02T12:03:35.411Z,96.90
2023-03-02T12:06:16.655Z,97.10
2023-03-02T12:08:46.751Z,97.30
2023-03-02T12:11:19.663Z,96.90
2023-03-02T12:13:49.249Z,96.50
2023-03-02T12:16:23.817Z,96.60
2023-03-02T12:18:52.508Z,96.60
2023-03-02T12:21:20.384Z,96.30
2023-03-02T12:23:50.263Z,96.00
2023-03-02T12:26:19.787Z,96.10
2023-03-02T12:29:02.573Z,96.70
2023-03-02T12:31:53.632Z,96.80
2023-03-02T12:34:43.111Z,97.20
2023-03-02T12:37:23.637Z,97.00
2023-03-02T12:40:16.671Z,96.80
2023-03-02T12:42:43.621Z,96.70
2023-03-02T12:45:25.817Z,96.70
2023-03-02T12:48:03.018Z,96.90
2023-03-02T12:50:41.406Z,96.90
2023-03-02T12:53:18.520Z,96.30
2023-03-02T12:55:45.775Z,96.10
2023-03-02T12:58:22.152Z,95.60
2023-03-02T13:00:52.249Z,96.20
2023-03-02T13:03:19.125Z,96.10
2023-03-02T13:05:47.475Z,96.10
2023-03-02T13:08:14.228Z,95.70
2023-03-02T13:10:43.945Z,95.40
2023-03-02T13:13:34.797Z,95.40
2023-03-02T13:16:04.606Z,95.40
2023-03-02T13:18:34.172Z,95.50
2023-03-02T13:21:03.145Z,95.40
2023-03-02T13:23:31.567Z,95.20
2023-03-02T13:26:01.475Z,95.20
2023-03-02T13:28:32.334Z,95.30
2023-03-02T13:31:23.638Z,95.30
2023-03-02T13:33:52.820Z,95.20
2023-03-02T13:36:26.001Z,95.50
2023-03-02T13:38:56.220Z,95.50
2023-03-02T13:41:24.204Z,95.50
2023-03-02T13:43:51.434Z,95.80
2023-03-02T13:46:18.302Z,95.70
2023-03-02T13:49:07.478Z,95.60
2023-03-02T13:51:40.468Z,95.90
2023-03-02T13:54:21.384Z,95.30
2023-03-02T13:56:49.582Z,95.70
2023-03-02T13:59:19.355Z,95.60
2023-03-02T14:01:47.039Z,95.00
2023-03-02T14:04:17.637Z,95.10
2023-03-02T14:06:45.875Z,95.00
2023-03-02T14:09:13.472Z,94.80
2023-03-02T14:11:50.493Z,94.90
2023-03-02T14:14:21.087Z,94.80
2023-03-02T14:16:48.224Z,95.00
2023-03-02T14:19:18.735Z,95.20
2023-03-02T14:21:46.770Z,95.20
2023-03-02T14:24:14.138Z,95.30
2023-03-02T14:26:45.842Z,95.10
2023-03-02T14:29:29.104Z,95.20
2023-03-02T14:32:00.700Z,95.30
2023-03-02T14:34:27.727Z,95.50
2023-03-02T14:36:58.261Z,95.50
2023-03-02T14:39:40.277Z,95.20
2023-03-02T14:42:13.367Z,95.20
2023-03-02T14:44:41.406Z,95.20
2023-03-02T14:47:10.167Z,95.40
2023-03-02T14:49:37.936Z,95.20
2023-03-02T14:52:12.693Z,95.20
2023-03-02T14:54:46.255Z,95.30
2023-03-02T14:57:21.555Z,95.20
2023-03-02T14:59:48.961Z,95.30
2023-03-02T15:02:25.351Z,95.30
2023-03-02T15:04:56.539Z,95.20
2023-03-02T15:07:24.976Z,95.10
2023-03-02T15:09:51.857Z,95.00
2023-03-02T15:12:18.778Z,94.90
2023-03-02T15:14:45.654Z,94.60
2023-03-02T15:17:12.515Z,94.60
2023-03-02T15:19:39.463Z,94.70
2023-03-02T15:22:06.398Z,94.50
2023-03-02T15:24:33.695Z,94.70
2023-03-02T15:27:00.795Z,94.60
2023-03-02T15:29:27.699Z,94.70
2023-03-02T15:31:54.823Z,94.70
2023-03-02T15:34:21.944Z,94.60
2023-03-02T15:36:48.899Z,94.70
2023-03-02T15:39:16.792Z,94.70
2023-03-02T15:41:43.969Z,94.70
2023-03-02T15:44:22.090Z,94.50
2023-03-02T15:46:53.549Z,94.60
2023-03-02T15:49:23.040Z,94.60
2023-03-02T15:51:54.798Z,94.70
2023-03-02T15:54:22.202Z,94.60
2023-03-02T15:56:52.177Z,94.50
2023-03-02T15:59:20.506Z,94.60
2023-03-02T16:01:47.486Z,94.50
2023-03-02T16:04:14.456Z,94.50
2023-03-02T16:06:41.418Z,94.50
2023-03-02T16:09:08.735Z,94.40
2023-03-02T16:11:35.632Z,94.30
2023-03-02T16:14:03.032Z,94.20
2023-03-02T16:16:30.171Z,94.20
2023-03-02T16:18:59.074Z,94.20
2023-03-02T16:21:28.638Z,94.20
2023-03-02T16:24:03.161Z,94.10
2023-03-02T16:26:32.072Z,94.10
2023-03-02T16:28:59.904Z,94.10
2023-03-02T16:31:28.145Z,94.30
2023-03-02T16:33:57.588Z,94.30
2023-03-02T16:36:24.695Z,94.30
2023-03-02T16:38:52.295Z,94.30
2023-03-02T16:41:23.737Z,94.40
2023-03-02T16:43:56.594Z,94.50
2023-03-02T16:46:25.958Z,94.50
2023-03-02T16:48:53.630Z,94.60
2023-03-02T16:51:20.958Z,94.60
2023-03-02T16:53:48.055Z,94.60
2023-03-02T16:56:15.697Z,94.60
2023-03-02T16:58:43.513Z,94.60
2023-03-02T17:01:16.536Z,94.60
2023-03-02T17:03:44.476Z,94.70
2023-03-02T17:06:13.249Z,94.60
2023-03-02T17:08:40.519Z,94.70
2023-03-02T17:11:07.694Z,94.80
2023-03-02T17:13:34.897Z,95.10
2023-03-02T17:16:02.233Z,95.00
2023-03-02T17:18:30.037Z,94.70
2023-03-02T17:20:58.889Z,94.70
2023-03-02T17:23:27.203Z,94.80
2023-03-02T17:25:54.972Z,94.80
2023-03-02T17:28:21.944Z,94.80
2023-03-02T17:30:49.205Z,94.80
2023-03-02T17:33:17.270Z,94.80
2023-03-02T17:35:46.266Z,94.80
2023-03-02T17:38:14.444Z,94.90
2023-03-02T17:40:42.263Z,94.80
2023-03-02T17:43:09.304Z,94.80
2023-03-02T17:45:37.326Z,94.70
2023-03-02T17:48:04.586Z,94.80
2023-03-02T17:50:32.475Z,94.80
2023-03-02T17:53:00.046Z,94.70
2023-03-02T17:55:27.413Z,94.70
2023-03-02T17:57:54.774Z,94.80
2023-03-02T18:00:26.282Z,94.80
2023-03-02T18:02:54.150Z,95.00
2023-03-02T18:05:21.928Z,94.80
2023-03-02T18:07:49.001Z,95.00
2023-03-02T18:10:16.643Z,95.00
2023-03-02T18:12:43.798Z,94.90
2023-03-02T18:15:12.521Z,94.90
2023-03-02T18:17:39.442Z,95.00
2023-03-02T18:20:07.315Z,95.10
2023-03-02T18:22:36.880Z,95.10
2023-03-02T18:25:04.143Z,95.00
2023-03-02T18:27:31.093Z,95.00
2023-03-02T18:29:58.069Z,95.00
2023-03-02T18:32:25.945Z,95.00
2023-03-02T18:34:52.990Z,95.00
2023-03-02T18:37:19.918Z,95.10
2023-03-02T18:39:47.181Z,95.10
2023-03-02T18:42:14.379Z,95.10
2023-03-02T18:44:41.374Z,95.10
2023-03-02T18:47:10.155Z,95.00
2023-03-02T18:49:38.332Z,95.10
2023-03-02T18:52:06.919Z,95.30
2023-03-02T18:54:33.838Z,95.30
2023-03-02T18:57:01.815Z,95.50
2023-03-02T18:59:29.373Z,95.50
2023-03-02T19:01:57.511Z,95.50
2023-03-02T19:04:26.850Z,95.40
2023-03-02T19:06:56.124Z,95.50
2023-03-02T19:09:23.732Z,95.50
2023-03-02T19:11:50.665Z,95.50
2023-03-02T19:14:17.682Z,95.60
2023-03-02T19:16:44.743Z,95.60
2023-03-02T19:19:11.535Z,95.60
2023-03-02T19:21:38.440Z,95.50
2023-03-02T19:24:05.798Z,95.50
2023-03-02T19:26:32.837Z,95.40
2023-03-02T19:29:00.232Z,95.50
2023-03-02T19:31:27.644Z,95.60
2023-03-02T19:33:54.882Z,95.80
2023-03-02T19:36:21.729Z,95.80
2023-03-02T19:38:48.529Z,95.80
2023-03-02T19:41:18.284Z,95.80
2023-03-02T19:43:47.510Z,95.80
2023-03-02T19:46:19.145Z,95.80
2023-03-02T19:48:46.113Z,95.80
2023-03-02T19:51:15.171Z,96.00
2023-03-02T19:53:43.739Z,96.10
2023-03-02T19:56:13.159Z,96.00
2023-03-02T19:58:47.297Z,96.00
2023-03-02T20:01:17.686Z,96.10
2023-03-02T20:03:46.309Z,96.10
2023-03-02T20:06:13.159Z,96.20
2023-03-02T20:08:39.976Z,96.20
2023-03-02T20:11:06.874Z,96.20
2023-03-02T20:13:33.742Z,96.20
2023-03-02T20:16:01.529Z,96.20
2023-03-02T20:18:28.410Z,96.20
2023-03-02T20:20:55.253Z,96.10
2023-03-02T20:23:22.306Z,96.00
2023-03-02T20:25:49.515Z,96.20
2023-03-02T20:28:18.733Z,96.20
2023-03-02T20:30:51.445Z,96.30
2023-03-02T20:33:20.250Z,96.40
2023-03-02T20:35:47.931Z,96.40
2023-03-02T20:38:31.192Z,96.50
2023-03-02T20:40:58.549Z,96.50
2023-03-02T20:43:25.622Z,96.70
2023-03-02T20:45:53.436Z,96.90
2023-03-02T20:48:22.253Z,97.00
2023-03-02T20:50:50.737Z,97.10
2023-03-02T20:53:18.386Z,97.20
2023-03-02T20:55:45.664Z,97.20
2023-03-02T20:58:13.553Z,97.30
2023-03-02T21:00:41.289Z,97.20
2023-03-02T21:03:08.529Z,97.30
2023-03-02T21:05:37.545Z,97.30
2023-03-02T21:08:04.971Z,97.30
2023-03-02T21:10:36.137Z,97.30
2023-03-02T21:13:04.859Z,97.20
2023-03-02T21:15:32.208Z,97.40
2023-03-02T21:18:00.315Z,97.50
2023-03-02T21:20:30.731Z,97.50
2023-03-02T21:22:58.087Z,97.60
2023-03-02T21:25:24.980Z,97.70
2023-03-02T21:27:51.787Z,97.70
2023-03-02T21:30:22.613Z,97.70
2023-03-02T21:32:49.469Z,97.90
2023-03-02T21:35:20.490Z,97.80
2023-03-02T21:37:49.162Z,97.90
2023-03-02T21:40:23.966Z,97.80
2023-03-02T21:42:50.794Z,97.80
2023-03-02T21:45:18.920Z,97.90
2023-03-02T21:47:46.306Z,97.80
2023-03-02T21:50:18.544Z,97.80
2023-03-02T21:52:45.437Z,97.80
2023-03-02T21:55:13.333Z,97.80
2023-03-02T21:57:40.612Z,97.90
2023-03-02T22:00:09.993Z,97.90
2023-03-02T22:02:37.585Z,98.00
2023-03-02T22:05:04.966Z,97.90
2023-03-02T22:07:32.005Z,97.90
2023-03-02T22:09:58.887Z,97.90
2023-03-02T22:12:26.047Z,97.90
2023-03-02T22:14:54.693Z,97.90
2023-03-02T22:17:24.754Z,97.90
2023-03-02T22:19:52.476Z,97.90
2023-03-02T22:22:24.359Z,97.80
2023-03-02T22:24:52.749Z,98.00
2023-03-02T22:27:30.024Z,98.00
2023-03-02T22:29:59.819Z,98.10
2023-03-02T22:32:38.893Z,98.00
2023-03-02T22:35:25.700Z,98.10
2023-03-02T22:38:01.847Z,98.20
2023-03-02T22:40:34.195Z,98.20
2023-03-02T22:43:31.680Z,98.10
2023-03-02T22:46:17.530Z,98.20
2023-03-02T22:48:47.487Z,98.20
2023-03-02T22:51:23.086Z,98.20
2023-03-02T22:53:55.465Z,98.30
2023-03-02T22:56:25.424Z,98.30
2023-03-02T22:58:53.560Z,98.40
2023-03-02T23:01:29.589Z,98.30
2023-03-02T23:04:22.458Z,98.30
2023-03-02T23:06:54.454Z,98.30
2023-03-02T23:09:27.742Z,98.30
2023-03-02T23:11:58.170Z,98.40
2023-03-02T23:14:29.366Z,98.40
2023-03-02T23:17:02.683Z,98.40
2023-03-02T23:19:31.003Z,98.40
2023-03-02T23:21:58.435Z,98.40
2023-03-02T23:24:25.830Z,98.40
2023-03-02T23:26:53.203Z,98.20
2023-03-02T23:29:21.407Z,98.30
2023-03-02T23:31:49.093Z,98.30
2023-03-02T23:34:16.361Z,98.40
2023-03-02T23:36:43.800Z,98.50
2023-03-02T23:39:10.870Z,98.50
2023-03-02T23:41:38.901Z,98.40
2023-03-02T23:44:07.116Z,98.40
2023-03-02T23:46:34.740Z,98.30
2023-03-02T23:49:01.811Z,98.40
2023-03-02T23:51:28.628Z,98.50
2023-03-02T23:53:56.130Z,98.60
2023-03-02T23:56:23.470Z,98.50
2023-03-02T23:58:51.435Z,98.40
